sensor_id;sensor_type;location;lat;lon;timestamp;P1;durP1;ratioP1;P2;durP2;ratioP2
54372;SDS011;40271;48.798;10.178;2022-11-14T03:14:00;52.45;;;10.48;;
54372;SDS011;40271;48.798;10.178;2022-11-14T03:16:26;55.40;;;11.20;;
54372;SDS011;40271;48.798;10.178;2022-11-14T03:18:52;72.20;;;12.07;;
54372;SDS011;40271;48.798;10.178;2022-11-14T03:21:18;64.40;;;12.23;;
54372;SDS011;40271;48.798;10.178;2022-11-14T03:23:44;92.93;;;13.52;;
54372;SDS011;40271;48.798;10.178;2022-11-14T03:26:11;67.10;;;11.80;;
54372;SDS011;40271;48.798;10.178;2022-11-14T03:28:37;72.95;;;10.85;;
54372;SDS011;40271;48.798;10.178;2022-11-14T03:31:04;79.47;;;11.60;;
54372;SDS011;40271;48.798;10.178;2022-11-14T03:33:30;70.05;;;11.45;;
54372;SDS011;40271;48.798;10.178;2022-11-14T03:35:56;61.95;;;11.45;;
54372;SDS011;40271;48.798;10.178;2022-11-14T03:38:22;68.20;;;10.73;;
54372;SDS011;40271;48.798;10.178;2022-11-14T03:40:48;67.03;;;10.63;;
54372;SDS011;40271;48.798;10.178;2022-11-14T03:43:15;72.25;;;11.98;;
54372;SDS011;40271;48.798;10.178;2022-11-14T03:45:41;69.38;;;10.52;;
54372;SDS011;40271;48.798;10.178;2022-11-14T03:48:07;93.35;;;11.45;;
54372;SDS011;40271;48.798;10.178;2022-11-14T03:50:33;78.15;;;11.40;;
54372;SDS011;40271;48.798;10.178;2022-11-14T03:52:59;83.93;;;11.63;;
54372;SDS011;40271;48.798;10.178;2022-11-14T03:55:25;82.90;;;10.70;;
54372;SDS011;40271;48.798;10.178;2022-11-14T03:57:51;81.57;;;10.82;;
54372;SDS011;40271;48.798;10.178;2022-11-14T04:00:17;103.75;;;11.68;;
54372;SDS011;40271;48.798;10.178;2022-11-14T04:02:43;82.18;;;10.52;;
54372;SDS011;40271;48.798;10.178;2022-11-14T04:05:09;70.75;;;10.73;;
54372;SDS011;40271;48.798;10.178;2022-11-14T04:07:35;90.40;;;11.35;;
54372;SDS011;40271;48.798;10.178;2022-11-14T04:10:01;121.82;;;12.90;;
54372;SDS011;40271;48.798;10.178;2022-11-14T04:12:27;96.13;;;10.93;;
54372;SDS011;40271;48.798;10.178;2022-11-14T04:14:53;79.78;;;11.82;;
54372;SDS011;40271;48.798;10.178;2022-11-14T04:17:19;106.90;;;11.85;;
54372;SDS011;40271;48.798;10.178;2022-11-14T04:19:45;88.25;;;11.15;;
54372;SDS011;40271;48.798;10.178;2022-11-14T04:22:11;109.22;;;11.85;;
54372;SDS011;40271;48.798;10.178;2022-11-14T04:24:37;135.57;;;12.35;;
54372;SDS011;40271;48.798;10.178;2022-11-14T04:27:03;90.55;;;11.98;;
54372;SDS011;40271;48.798;10.178;2022-11-14T04:29:29;113.65;;;12.10;;
54372;SDS011;40271;48.798;10.178;2022-11-14T04:31:55;78.13;;;10.52;;
54372;SDS011;40271;48.798;10.178;2022-11-14T04:34:21;94.18;;;11.35;;
54372;SDS011;40271;48.798;10.178;2022-11-14T04:36:47;90.10;;;11.30;;
54372;SDS011;40271;48.798;10.178;2022-11-14T04:39:15;112.03;;;12.40;;
54372;SDS011;40271;48.798;10.178;2022-11-14T04:41:41;96.00;;;11.38;;
54372;SDS011;40271;48.798;10.178;2022-11-14T04:44:07;118.63;;;11.13;;
54372;SDS011;40271;48.798;10.178;2022-11-14T04:46:33;99.88;;;10.75;;
54372;SDS011;40271;48.798;10.178;2022-11-14T04:48:59;75.43;;;9.27;;
54372;SDS011;40271;48.798;10.178;2022-11-14T04:51:25;44.90;;;9.70;;
54372;SDS011;40271;48.798;10.178;2022-11-14T04:53:51;69.40;;;10.00;;
54372;SDS011;40271;48.798;10.178;2022-11-14T04:56:17;56.00;;;9.93;;
54372;SDS011;40271;48.798;10.178;2022-11-14T04:58:43;91.18;;;11.23;;
54372;SDS011;40271;48.798;10.178;2022-11-14T05:01:09;58.40;;;10.02;;
54372;SDS011;40271;48.798;10.178;2022-11-14T05:03:35;68.30;;;10.40;;
54372;SDS011;40271;48.798;10.178;2022-11-14T05:06:02;52.63;;;10.32;;
54372;SDS011;40271;48.798;10.178;2022-11-14T05:08:28;66.57;;;10.65;;
54372;SDS011;40271;48.798;10.178;2022-11-14T05:10:54;54.08;;;10.90;;
54372;SDS011;40271;48.798;10.178;2022-11-14T05:13:20;36.30;;;10.68;;
54372;SDS011;40271;48.798;10.178;2022-11-14T05:15:46;65.22;;;10.98;;
54372;SDS011;40271;48.798;10.178;2022-11-14T05:18:12;41.53;;;9.13;;
54372;SDS011;40271;48.798;10.178;2022-11-14T05:20:38;45.10;;;9.40;;
54372;SDS011;40271;48.798;10.178;2022-11-14T05:23:04;66.53;;;9.38;;
54372;SDS011;40271;48.798;10.178;2022-11-14T05:25:30;45.10;;;8.15;;
54372;SDS011;40271;48.798;10.178;2022-11-14T05:27:56;54.45;;;10.95;;
54372;SDS011;40271;48.798;10.178;2022-11-14T05:30:22;51.92;;;11.18;;
54372;SDS011;40271;48.798;10.178;2022-11-14T05:32:49;28.02;;;9.80;;
54372;SDS011;40271;48.798;10.178;2022-11-14T05:35:15;55.10;;;8.75;;
54372;SDS011;40271;48.798;10.178;2022-11-14T05:37:41;37.75;;;8.82;;
54372;SDS011;40271;48.798;10.178;2022-11-14T05:40:07;43.22;;;8.77;;
54372;SDS011;40271;48.798;10.178;2022-11-14T05:42:34;30.55;;;8.60;;
54372;SDS011;40271;48.798;10.178;2022-11-14T05:45:00;36.03;;;8.57;;
54372;SDS011;40271;48.798;10.178;2022-11-14T05:47:26;34.85;;;8.93;;
54372;SDS011;40271;48.798;10.178;2022-11-14T05:49:52;54.45;;;9.23;;
54372;SDS011;40271;48.798;10.178;2022-11-14T05:52:17;52.08;;;10.30;;
54372;SDS011;40271;48.798;10.178;2022-11-14T05:54:43;33.00;;;9.75;;
54372;SDS011;40271;48.798;10.178;2022-11-14T05:57:09;27.98;;;8.40;;
54372;SDS011;40271;48.798;10.178;2022-11-14T05:59:35;54.88;;;10.20;;
54372;SDS011;40271;48.798;10.178;2022-11-14T06:02:01;42.53;;;9.23;;
54372;SDS011;40271;48.798;10.178;2022-11-14T06:04:27;24.10;;;8.25;;
54372;SDS011;40271;48.798;10.178;2022-11-14T06:06:53;21.77;;;8.25;;
54372;SDS011;40271;48.798;10.178;2022-11-14T06:09:19;33.63;;;8.70;;
54372;SDS011;40271;48.798;10.178;2022-11-14T06:11:45;26.60;;;8.73;;
54372;SDS011;40271;48.798;10.178;2022-11-14T06:14:11;32.40;;;8.82;;
54372;SDS011;40271;48.798;10.178;2022-11-14T06:16:37;28.08;;;9.95;;
54372;SDS011;40271;48.798;10.178;2022-11-14T06:19:03;29.23;;;8.73;;
54372;SDS011;40271;48.798;10.178;2022-11-14T06:21:29;42.10;;;7.93;;
54372;SDS011;40271;48.798;10.178;2022-11-14T06:23:55;50.00;;;8.50;;
54372;SDS011;40271;48.798;10.178;2022-11-14T06:26:25;31.92;;;8.07;;
54372;SDS011;40271;48.798;10.178;2022-11-14T06:28:54;45.83;;;8.98;;
54372;SDS011;40271;48.798;10.178;2022-11-14T06:31:20;49.95;;;8.77;;
54372;SDS011;40271;48.798;10.178;2022-11-14T06:33:46;40.22;;;8.63;;
54372;SDS011;40271;48.798;10.178;2022-11-14T06:36:12;31.08;;;7.72;;
54372;SDS011;40271;48.798;10.178;2022-11-14T06:38:39;34.45;;;8.80;;
54372;SDS011;40271;48.798;10.178;2022-11-14T06:41:05;25.08;;;7.80;;
54372;SDS011;40271;48.798;10.178;2022-11-14T06:43:32;29.38;;;8.45;;
54372;SDS011;40271;48.798;10.178;2022-11-14T06:45:58;36.10;;;8.25;;
54372;SDS011;40271;48.798;10.178;2022-11-14T06:48:24;45.88;;;8.88;;
54372;SDS011;40271;48.798;10.178;2022-11-14T06:50:51;30.73;;;8.30;;
54372;SDS011;40271;48.798;10.178;2022-11-14T06:53:17;40.92;;;8.52;;
54372;SDS011;40271;48.798;10.178;2022-11-14T06:55:51;27.40;;;7.90;;
54372;SDS011;40271;48.798;10.178;2022-11-14T06:58:17;40.20;;;9.02;;
54372;SDS011;40271;48.798;10.178;2022-11-14T07:00:43;32.55;;;9.32;;
54372;SDS011;40271;48.798;10.178;2022-11-14T07:03:09;38.35;;;9.80;;
54372;SDS011;40271;48.798;10.178;2022-11-14T07:05:35;32.65;;;9.70;;
54372;SDS011;40271;48.798;10.178;2022-11-14T07:08:01;28.85;;;9.63;;
54372;SDS011;40271;48.798;10.178;2022-11-14T07:10:27;26.95;;;9.73;;
54372;SDS011;40271;48.798;10.178;2022-11-14T07:12:53;40.22;;;10.40;;
54372;SDS011;40271;48.798;10.178;2022-11-14T07:15:19;29.95;;;10.27;;
54372;SDS011;40271;48.798;10.178;2022-11-14T07:17:45;30.23;;;10.88;;
54372;SDS011;40271;48.798;10.178;2022-11-14T07:20:12;28.92;;;10.65;;
54372;SDS011;40271;48.798;10.178;2022-11-14T07:22:38;30.98;;;10.77;;
54372;SDS011;40271;48.798;10.178;2022-11-14T07:25:05;36.70;;;9.60;;
54372;SDS011;40271;48.798;10.178;2022-11-14T07:27:31;29.80;;;10.85;;
54372;SDS011;40271;48.798;10.178;2022-11-14T07:29:57;38.40;;;11.60;;
54372;SDS011;40271;48.798;10.178;2022-11-14T07:32:23;31.05;;;10.23;;
54372;SDS011;40271;48.798;10.178;2022-11-14T07:34:49;39.58;;;11.27;;
54372;SDS011;40271;48.798;10.178;2022-11-14T07:37:15;36.53;;;11.93;;
54372;SDS011;40271;48.798;10.178;2022-11-14T07:39:40;40.03;;;11.18;;
54372;SDS011;40271;48.798;10.178;2022-11-14T07:42:06;35.38;;;11.88;;
54372;SDS011;40271;48.798;10.178;2022-11-14T07:44:32;31.88;;;11.32;;
54372;SDS011;40271;48.798;10.178;2022-11-14T07:46:58;36.13;;;11.57;;
54372;SDS011;40271;48.798;10.178;2022-11-14T07:49:24;33.60;;;10.73;;
54372;SDS011;40271;48.798;10.178;2022-11-14T07:51:50;27.77;;;11.10;;
54372;SDS011;40271;48.798;10.178;2022-11-14T07:54:16;30.30;;;11.38;;
54372;SDS011;40271;48.798;10.178;2022-11-14T07:56:42;32.45;;;10.45;;
54372;SDS011;40271;48.798;10.178;2022-11-14T07:59:08;30.75;;;10.32;;
54372;SDS011;40271;48.798;10.178;2022-11-14T08:01:34;32.08;;;11.48;;
54372;SDS011;40271;48.798;10.178;2022-11-14T08:04:00;31.00;;;10.52;;
54372;SDS011;40271;48.798;10.178;2022-11-14T08:06:26;31.15;;;9.88;;
54372;SDS011;40271;48.798;10.178;2022-11-14T08:08:52;32.45;;;10.10;;
54372;SDS011;40271;48.798;10.178;2022-11-14T08:11:18;33.92;;;11.45;;
54372;SDS011;40271;48.798;10.178;2022-11-14T08:14:04;24.17;;;10.48;;
54372;SDS011;40271;48.798;10.178;2022-11-14T08:16:30;28.98;;;10.95;;
54372;SDS011;40271;48.798;10.178;2022-11-14T08:18:56;25.33;;;10.63;;
54372;SDS011;40271;48.798;10.178;2022-11-14T08:21:22;31.08;;;11.07;;
54372;SDS011;40271;48.798;10.178;2022-11-14T08:23:48;27.42;;;9.73;;
54372;SDS011;40271;48.798;10.178;2022-11-14T08:26:15;26.02;;;10.20;;
54372;SDS011;40271;48.798;10.178;2022-11-14T08:28:41;22.73;;;9.88;;
54372;SDS011;40271;48.798;10.178;2022-11-14T08:31:07;30.60;;;10.73;;
54372;SDS011;40271;48.798;10.178;2022-11-14T08:33:34;26.33;;;10.15;;
54372;SDS011;40271;48.798;10.178;2022-11-14T08:36:00;25.20;;;10.15;;
54372;SDS011;40271;48.798;10.178;2022-11-14T08:38:26;21.70;;;9.63;;
54372;SDS011;40271;48.798;10.178;2022-11-14T08:40:52;23.52;;;10.02;;
54372;SDS011;40271;48.798;10.178;2022-11-14T08:43:22;22.33;;;9.57;;
54372;SDS011;40271;48.798;10.178;2022-11-14T08:45:48;25.02;;;9.65;;
54372;SDS011;40271;48.798;10.178;2022-11-14T08:48:14;25.75;;;9.60;;
54372;SDS011;40271;48.798;10.178;2022-11-14T08:50:40;26.90;;;10.15;;
54372;SDS011;40271;48.798;10.178;2022-11-14T08:53:06;23.55;;;9.75;;
54372;SDS011;40271;48.798;10.178;2022-11-14T08:55:32;28.40;;;10.57;;
54372;SDS011;40271;48.798;10.178;2022-11-14T08:57:58;27.45;;;10.27;;
54372;SDS011;40271;48.798;10.178;2022-11-14T09:00:24;25.52;;;10.07;;
54372;SDS011;40271;48.798;10.178;2022-11-14T09:02:50;22.95;;;9.82;;
54372;SDS011;40271;48.798;10.178;2022-11-14T09:05:16;25.23;;;10.10;;
54372;SDS011;40271;48.798;10.178;2022-11-14T09:07:42;29.90;;;11.93;;
54372;SDS011;40271;48.798;10.178;2022-11-14T09:10:08;28.48;;;10.32;;
54372;SDS011;40271;48.798;10.178;2022-11-14T09:12:35;29.80;;;10.80;;
54372;SDS011;40271;48.798;10.178;2022-11-14T09:15:00;26.95;;;11.00;;
54372;SDS011;40271;48.798;10.178;2022-11-14T09:17:26;27.73;;;10.50;;
54372;SDS011;40271;48.798;10.178;2022-11-14T09:19:52;23.70;;;10.10;;
54372;SDS011;40271;48.798;10.178;2022-11-14T09:22:19;23.65;;;9.68;;
54372;SDS011;40271;48.798;10.178;2022-11-14T09:24:45;24.50;;;10.48;;
54372;SDS011;40271;48.798;10.178;2022-11-14T09:27:11;24.75;;;10.93;;
54372;SDS011;40271;48.798;10.178;2022-11-14T09:29:38;25.85;;;9.93;;
54372;SDS011;40271;48.798;10.178;2022-11-14T09:32:04;21.55;;;9.98;;
54372;SDS011;40271;48.798;10.178;2022-11-14T09:34:30;24.30;;;10.18;;
54372;SDS011;40271;48.798;10.178;2022-11-14T09:36:56;23.75;;;10.52;;
54372;SDS011;40271;48.798;10.178;2022-11-14T09:39:22;26.33;;;10.85;;
54372;SDS011;40271;48.798;10.178;2022-11-14T09:46:43;21.48;;;10.23;;
54372;SDS011;40271;48.798;10.178;2022-11-14T09:49:10;25.05;;;9.30;;
54372;SDS011;40271;48.798;10.178;2022-11-14T09:51:44;20.80;;;9.38;;
54372;SDS011;40271;48.798;10.178;2022-11-14T09:54:16;23.23;;;9.65;;
54372;SDS011;40271;48.798;10.178;2022-11-14T09:56:44;20.13;;;10.30;;
54372;SDS011;40271;48.798;10.178;2022-11-14T09:59:10;20.10;;;9.10;;
54372;SDS011;40271;48.798;10.178;2022-11-14T10:01:47;21.45;;;9.55;;
54372;SDS011;40271;48.798;10.178;2022-11-14T10:04:27;22.02;;;9.80;;
54372;SDS011;40271;48.798;10.178;2022-11-14T10:15:15;22.92;;;10.10;;
54372;SDS011;40271;48.798;10.178;2022-11-14T10:18:01;20.90;;;9.10;;
54372;SDS011;40271;48.798;10.178;2022-11-14T10:25:43;20.95;;;8.98;;
54372;SDS011;40271;48.798;10.178;2022-11-14T10:35:47;22.15;;;9.18;;
54372;SDS011;40271;48.798;10.178;2022-11-14T10:40:59;21.77;;;9.00;;
54372;SDS011;40271;48.798;10.178;2022-11-14T10:43:34;21.50;;;9.15;;
54372;SDS011;40271;48.798;10.178;2022-11-14T10:46:22;16.33;;;7.93;;
54372;SDS011;40271;48.798;10.178;2022-11-14T10:48:49;18.45;;;8.65;;
54372;SDS011;40271;48.798;10.178;2022-11-14T10:53:54;18.15;;;8.18;;
54372;SDS011;40271;48.798;10.178;2022-11-14T10:56:21;19.55;;;8.30;;
54372;SDS011;40271;48.798;10.178;2022-11-14T10:58:47;20.38;;;8.88;;
54372;SDS011;40271;48.798;10.178;2022-11-14T11:06:36;18.58;;;9.27;;
54372;SDS011;40271;48.798;10.178;2022-11-14T11:09:10;17.10;;;7.80;;
54372;SDS011;40271;48.798;10.178;2022-11-14T11:11:57;20.13;;;8.70;;
54372;SDS011;40271;48.798;10.178;2022-11-14T11:14:23;19.33;;;9.00;;
54372;SDS011;40271;48.798;10.178;2022-11-14T11:17:06;18.67;;;8.98;;
54372;SDS011;40271;48.798;10.178;2022-11-14T11:19:32;19.92;;;9.27;;
54372;SDS011;40271;48.798;10.178;2022-11-14T11:21:58;19.17;;;9.10;;
54372;SDS011;40271;48.798;10.178;2022-11-14T11:24:31;17.92;;;8.65;;
54372;SDS011;40271;48.798;10.178;2022-11-14T11:27:13;17.83;;;7.93;;
54372;SDS011;40271;48.798;10.178;2022-11-14T11:29:44;15.68;;;8.20;;
54372;SDS011;40271;48.798;10.178;2022-11-14T11:32:11;19.42;;;8.35;;
54372;SDS011;40271;48.798;10.178;2022-11-14T11:34:48;16.92;;;8.13;;
54372;SDS011;40271;48.798;10.178;2022-11-14T11:37:14;16.23;;;7.80;;
54372;SDS011;40271;48.798;10.178;2022-11-14T11:39:53;19.23;;;9.05;;
54372;SDS011;40271;48.798;10.178;2022-11-14T11:42:25;19.52;;;9.15;;
54372;SDS011;40271;48.798;10.178;2022-11-14T11:44:53;18.00;;;8.63;;
54372;SDS011;40271;48.798;10.178;2022-11-14T11:47:22;16.55;;;7.88;;
54372;SDS011;40271;48.798;10.178;2022-11-14T11:49:51;16.85;;;8.45;;
54372;SDS011;40271;48.798;10.178;2022-11-14T11:52:33;15.20;;;8.40;;
54372;SDS011;40271;48.798;10.178;2022-11-14T11:57:42;14.05;;;7.53;;
54372;SDS011;40271;48.798;10.178;2022-11-14T12:00:18;14.68;;;7.63;;
54372;SDS011;40271;48.798;10.178;2022-11-14T12:02:45;15.70;;;7.72;;
54372;SDS011;40271;48.798;10.178;2022-11-14T12:05:12;14.55;;;7.68;;
54372;SDS011;40271;48.798;10.178;2022-11-14T12:10:11;12.85;;;6.72;;
54372;SDS011;40271;48.798;10.178;2022-11-14T12:20:06;11.38;;;6.03;;
54372;SDS011;40271;48.798;10.178;2022-11-14T12:28:07;10.52;;;5.72;;
54372;SDS011;40271;48.798;10.178;2022-11-14T12:30:38;10.48;;;5.70;;
54372;SDS011;40271;48.798;10.178;2022-11-14T12:33:24;11.88;;;6.05;;
54372;SDS011;40271;48.798;10.178;2022-11-14T12:35:53;10.82;;;6.45;;
54372;SDS011;40271;48.798;10.178;2022-11-14T12:38:20;10.32;;;5.90;;
54372;SDS011;40271;48.798;10.178;2022-11-14T12:40:51;11.77;;;5.97;;
54372;SDS011;40271;48.798;10.178;2022-11-14T12:46:04;9.65;;;4.82;;
54372;SDS011;40271;48.798;10.178;2022-11-14T12:48:34;9.77;;;5.50;;
54372;SDS011;40271;48.798;10.178;2022-11-14T12:51:00;7.35;;;4.88;;
54372;SDS011;40271;48.798;10.178;2022-11-14T13:06:52;9.95;;;4.70;;
54372;SDS011;40271;48.798;10.178;2022-11-14T13:11:57;9.25;;;4.80;;
54372;SDS011;40271;48.798;10.178;2022-11-14T13:14:49;10.90;;;5.32;;
54372;SDS011;40271;48.798;10.178;2022-11-14T13:17:34;11.63;;;5.35;;
54372;SDS011;40271;48.798;10.178;2022-11-14T13:20:24;10.90;;;5.68;;
54372;SDS011;40271;48.798;10.178;2022-11-14T13:23:53;9.57;;;5.35;;
54372;SDS011;40271;48.798;10.178;2022-11-14T13:33:42;9.68;;;5.20;;
54372;SDS011;40271;48.798;10.178;2022-11-14T13:36:10;9.18;;;5.00;;
54372;SDS011;40271;48.798;10.178;2022-11-14T13:38:48;8.98;;;5.03;;
54372;SDS011;40271;48.798;10.178;2022-11-14T13:51:50;8.60;;;4.60;;
54372;SDS011;40271;48.798;10.178;2022-11-14T13:54:17;8.85;;;5.40;;
54372;SDS011;40271;48.798;10.178;2022-11-14T14:04:46;8.18;;;4.97;;
54372;SDS011;40271;48.798;10.178;2022-11-14T14:17:31;9.07;;;4.03;;
54372;SDS011;40271;48.798;10.178;2022-11-14T14:27:52;8.07;;;3.75;;
54372;SDS011;40271;48.798;10.178;2022-11-14T14:30:19;5.85;;;3.40;;
54372;SDS011;40271;48.798;10.178;2022-11-14T14:35:31;6.47;;;3.47;;
54372;SDS011;40271;48.798;10.178;2022-11-14T14:37:57;6.35;;;3.53;;
54372;SDS011;40271;48.798;10.178;2022-11-14T14:42:53;5.35;;;3.38;;
54372;SDS011;40271;48.798;10.178;2022-11-14T14:45:21;5.03;;;2.90;;
54372;SDS011;40271;48.798;10.178;2022-11-14T14:47:59;4.80;;;3.30;;
54372;SDS011;40271;48.798;10.178;2022-11-14T14:50:27;7.15;;;3.53;;
54372;SDS011;40271;48.798;10.178;2022-11-14T14:52:56;6.70;;;3.47;;
54372;SDS011;40271;48.798;10.178;2022-11-14T14:55:23;7.40;;;3.35;;
54372;SDS011;40271;48.798;10.178;2022-11-14T14:57:50;7.38;;;3.63;;
54372;SDS011;40271;48.798;10.178;2022-11-14T15:02:42;9.07;;;4.13;;
54372;SDS011;40271;48.798;10.178;2022-11-14T15:05:09;5.78;;;3.60;;
54372;SDS011;40271;48.798;10.178;2022-11-14T15:07:35;8.20;;;4.13;;
54372;SDS011;40271;48.798;10.178;2022-11-14T15:10:03;8.20;;;4.20;;
54372;SDS011;40271;48.798;10.178;2022-11-14T15:12:32;7.32;;;4.03;;
54372;SDS011;40271;48.798;10.178;2022-11-14T15:14:58;7.03;;;3.75;;
54372;SDS011;40271;48.798;10.178;2022-11-14T15:17:25;6.75;;;4.30;;
54372;SDS011;40271;48.798;10.178;2022-11-14T15:19:52;7.10;;;4.32;;
54372;SDS011;40271;48.798;10.178;2022-11-14T15:27:32;13.23;;;7.72;;
54372;SDS011;40271;48.798;10.178;2022-11-14T15:30:03;10.25;;;5.80;;
54372;SDS011;40271;48.798;10.178;2022-11-14T15:32:29;10.60;;;5.68;;
54372;SDS011;40271;48.798;10.178;2022-11-14T15:37:40;9.30;;;5.65;;
54372;SDS011;40271;48.798;10.178;2022-11-14T15:40:23;10.27;;;5.43;;
54372;SDS011;40271;48.798;10.178;2022-11-14T15:42:49;10.27;;;6.15;;
54372;SDS011;40271;48.798;10.178;2022-11-14T15:45:22;8.02;;;4.75;;
54372;SDS011;40271;48.798;10.178;2022-11-14T15:47:56;12.65;;;7.03;;
54372;SDS011;40271;48.798;10.178;2022-11-14T15:50:26;7.88;;;4.40;;
54372;SDS011;40271;48.798;10.178;2022-11-14T15:52:54;9.30;;;4.85;;
54372;SDS011;40271;48.798;10.178;2022-11-14T15:55:22;16.55;;;8.05;;
54372;SDS011;40271;48.798;10.178;2022-11-14T15:57:48;24.40;;;11.52;;
54372;SDS011;40271;48.798;10.178;2022-11-14T16:00:15;13.65;;;8.05;;
54372;SDS011;40271;48.798;10.178;2022-11-14T16:02:43;18.88;;;12.38;;
54372;SDS011;40271;48.798;10.178;2022-11-14T16:05:13;14.18;;;7.00;;
54372;SDS011;40271;48.798;10.178;2022-11-14T16:07:40;10.13;;;5.93;;
54372;SDS011;40271;48.798;10.178;2022-11-14T16:10:12;10.52;;;5.72;;
54372;SDS011;40271;48.798;10.178;2022-11-14T16:12:38;11.18;;;6.47;;
54372;SDS011;40271;48.798;10.178;2022-11-14T16:15:05;11.32;;;6.50;;
54372;SDS011;40271;48.798;10.178;2022-11-14T16:17:34;9.98;;;5.70;;
54372;SDS011;40271;48.798;10.178;2022-11-14T16:20:05;7.93;;;4.78;;
54372;SDS011;40271;48.798;10.178;2022-11-14T16:22:31;9.27;;;4.53;;
54372;SDS011;40271;48.798;10.178;2022-11-14T16:25:00;7.10;;;3.67;;
54372;SDS011;40271;48.798;10.178;2022-11-14T16:27:26;8.00;;;3.60;;
54372;SDS011;40271;48.798;10.178;2022-11-14T16:29:53;7.68;;;3.70;;
54372;SDS011;40271;48.798;10.178;2022-11-14T16:32:19;6.13;;;3.00;;
54372;SDS011;40271;48.798;10.178;2022-11-14T16:34:47;12.63;;;6.68;;
54372;SDS011;40271;48.798;10.178;2022-11-14T16:37:13;6.70;;;4.50;;
54372;SDS011;40271;48.798;10.178;2022-11-14T16:39:39;11.73;;;5.47;;
54372;SDS011;40271;48.798;10.178;2022-11-14T16:42:05;6.57;;;4.07;;
54372;SDS011;40271;48.798;10.178;2022-11-14T16:44:32;6.82;;;4.22;;
54372;SDS011;40271;48.798;10.178;2022-11-14T16:46:58;5.18;;;3.78;;
54372;SDS011;40271;48.798;10.178;2022-11-14T16:49:24;6.45;;;4.00;;
54372;SDS011;40271;48.798;10.178;2022-11-14T16:51:50;5.07;;;3.97;;
54372;SDS011;40271;48.798;10.178;2022-11-14T16:54:19;9.13;;;5.03;;
54372;SDS011;40271;48.798;10.178;2022-11-14T16:56:45;8.32;;;5.65;;
54372;SDS011;40271;48.798;10.178;2022-11-14T16:59:11;5.57;;;4.30;;
54372;SDS011;40271;48.798;10.178;2022-11-14T17:01:37;5.85;;;3.80;;
54372;SDS011;40271;48.798;10.178;2022-11-14T17:04:04;10.63;;;5.38;;
54372;SDS011;40271;48.798;10.178;2022-11-14T17:06:30;4.05;;;3.10;;
54372;SDS011;40271;48.798;10.178;2022-11-14T17:08:56;4.50;;;2.50;;
54372;SDS011;40271;48.798;10.178;2022-11-14T17:11:23;3.67;;;2.38;;
54372;SDS011;40271;48.798;10.178;2022-11-14T17:13:49;5.07;;;2.40;;
54372;SDS011;40271;48.798;10.178;2022-11-14T17:16:15;2.22;;;1.70;;
54372;SDS011;40271;48.798;10.178;2022-11-14T17:18:41;5.85;;;2.75;;
54372;SDS011;40271;48.798;10.178;2022-11-14T17:21:08;7.70;;;5.65;;
54372;SDS011;40271;48.798;10.178;2022-11-14T17:23:34;5.32;;;3.28;;
54372;SDS011;40271;48.798;10.178;2022-11-14T17:26:01;5.82;;;3.28;;
54372;SDS011;40271;48.798;10.178;2022-11-14T17:28:27;4.57;;;3.17;;
54372;SDS011;40271;48.798;10.178;2022-11-14T17:30:53;3.10;;;2.75;;
54372;SDS011;40271;48.798;10.178;2022-11-14T17:33:19;5.57;;;3.30;;
54372;SDS011;40271;48.798;10.178;2022-11-14T17:35:45;3.50;;;2.80;;
54372;SDS011;40271;48.798;10.178;2022-11-14T17:38:11;3.70;;;2.10;;
54372;SDS011;40271;48.798;10.178;2022-11-14T17:40:37;5.95;;;2.60;;
54372;SDS011;40271;48.798;10.178;2022-11-14T17:43:03;5.07;;;2.95;;
54372;SDS011;40271;48.798;10.178;2022-11-14T17:45:29;4.40;;;2.20;;
54372;SDS011;40271;48.798;10.178;2022-11-14T17:47:55;6.47;;;2.30;;
54372;SDS011;40271;48.798;10.178;2022-11-14T17:50:21;3.63;;;2.47;;
54372;SDS011;40271;48.798;10.178;2022-11-14T17:52:48;6.55;;;2.72;;
54372;SDS011;40271;48.798;10.178;2022-11-14T17:55:14;4.70;;;2.80;;
54372;SDS011;40271;48.798;10.178;2022-11-14T17:57:40;6.43;;;3.33;;
54372;SDS011;40271;48.798;10.178;2022-11-14T18:00:06;9.25;;;4.10;;
54372;SDS011;40271;48.798;10.178;2022-11-14T18:02:32;10.45;;;4.30;;
54372;SDS011;40271;48.798;10.178;2022-11-14T18:04:58;11.90;;;4.63;;
54372;SDS011;40271;48.798;10.178;2022-11-14T18:07:24;5.72;;;3.28;;
54372;SDS011;40271;48.798;10.178;2022-11-14T18:09:50;9.32;;;3.40;;
54372;SDS011;40271;48.798;10.178;2022-11-14T18:12:16;5.35;;;2.80;;
54372;SDS011;40271;48.798;10.178;2022-11-14T18:14:42;6.45;;;2.50;;
54372;SDS011;40271;48.798;10.178;2022-11-14T18:17:08;4.82;;;2.67;;
54372;SDS011;40271;48.798;10.178;2022-11-14T18:19:34;3.25;;;2.17;;
54372;SDS011;40271;48.798;10.178;2022-11-14T18:22:01;3.17;;;2.40;;
54372;SDS011;40271;48.798;10.178;2022-11-14T18:24:27;5.90;;;2.95;;
54372;SDS011;40271;48.798;10.178;2022-11-14T18:26:53;4.88;;;3.03;;
54372;SDS011;40271;48.798;10.178;2022-11-14T18:29:19;8.13;;;3.95;;
54372;SDS011;40271;48.798;10.178;2022-11-14T18:31:45;8.95;;;4.22;;
54372;SDS011;40271;48.798;10.178;2022-11-14T18:34:12;9.35;;;4.88;;
54372;SDS011;40271;48.798;10.178;2022-11-14T18:36:38;6.90;;;3.88;;
54372;SDS011;40271;48.798;10.178;2022-11-14T18:39:04;8.13;;;3.25;;
54372;SDS011;40271;48.798;10.178;2022-11-14T18:41:30;5.15;;;2.83;;
54372;SDS011;40271;48.798;10.178;2022-11-14T18:43:56;7.13;;;3.03;;
54372;SDS011;40271;48.798;10.178;2022-11-14T18:46:23;7.43;;;4.57;;
54372;SDS011;40271;48.798;10.178;2022-11-14T18:48:53;6.07;;;3.25;;
54372;SDS011;40271;48.798;10.178;2022-11-14T18:51:21;7.75;;;4.03;;
54372;SDS011;40271;48.798;10.178;2022-11-14T18:53:47;6.75;;;3.83;;
54372;SDS011;40271;48.798;10.178;2022-11-14T18:56:16;4.25;;;2.85;;
54372;SDS011;40271;48.798;10.178;2022-11-14T18:58:42;6.60;;;3.90;;
54372;SDS011;40271;48.798;10.178;2022-11-14T19:03:35;4.40;;;2.55;;
54372;SDS011;40271;48.798;10.178;2022-11-14T19:06:01;6.05;;;3.10;;
54372;SDS011;40271;48.798;10.178;2022-11-14T19:08:27;4.00;;;2.25;;
54372;SDS011;40271;48.798;10.178;2022-11-14T19:10:58;4.78;;;2.40;;
54372;SDS011;40271;48.798;10.178;2022-11-14T19:13:24;4.63;;;2.22;;
54372;SDS011;40271;48.798;10.178;2022-11-14T19:15:50;5.30;;;2.00;;
54372;SDS011;40271;48.798;10.178;2022-11-14T19:18:16;4.55;;;2.63;;
54372;SDS011;40271;48.798;10.178;2022-11-14T19:20:42;5.97;;;2.20;;
54372;SDS011;40271;48.798;10.178;2022-11-14T19:23:10;3.15;;;1.98;;
54372;SDS011;40271;48.798;10.178;2022-11-14T19:25:36;4.93;;;3.20;;
54372;SDS011;40271;48.798;10.178;2022-11-14T19:28:02;7.25;;;2.95;;
54372;SDS011;40271;48.798;10.178;2022-11-14T19:30:28;7.32;;;3.13;;
54372;SDS011;40271;48.798;10.178;2022-11-14T19:32:54;4.65;;;2.60;;
54372;SDS011;40271;48.798;10.178;2022-11-14T19:35:21;7.78;;;2.97;;
54372;SDS011;40271;48.798;10.178;2022-11-14T19:37:47;4.07;;;2.80;;
54372;SDS011;40271;48.798;10.178;2022-11-14T19:40:13;2.47;;;2.05;;
54372;SDS011;40271;48.798;10.178;2022-11-14T19:42:39;4.68;;;2.20;;
54372;SDS011;40271;48.798;10.178;2022-11-14T19:45:06;3.30;;;1.90;;
54372;SDS011;40271;48.798;10.178;2022-11-14T19:47:32;4.90;;;2.40;;
54372;SDS011;40271;48.798;10.178;2022-11-14T19:49:58;3.72;;;1.88;;
54372;SDS011;40271;48.798;10.178;2022-11-14T19:52:24;5.70;;;2.95;;